Time;durP1;ratioP1;P1;durP2;ratioP2;P2;SDS_P1;SDS_P2;PMS_P1;PMS_P2;Temp;Humidity;BMP_temperature;BMP_pressure;BME280_temperature;BME280_humidity;BME280_pressure;Samples;Min_cycle;Max_cycle;Signal;HPM_P1;HPM_P2
2021/05/25 00:00:30;;;;;;;0.57;0.57;;;13.70;57.00;;;;;;1478981;40;20064;-58
2021/05/25 00:01:51;;;;;;;1.23;0.90;;;13.70;57.10;;;;;;1478086;40;20043;-59
2021/05/25 00:03:14;;;;;;;0.70;0.70;;;13.70;57.10;;;;;;1481943;40;20041;-59
2021/05/25 00:04:35;;;;;;;0.65;0.60;;;13.70;57.20;;;;;;1480859;40;20035;-58
2021/05/25 00:05:56;;;;;;;1.77;0.77;;;13.70;57.20;;;;;;1478956;40;20138;-58
2021/05/25 00:07:16;;;;;;;1.30;0.70;;;13.70;57.40;;;;;;1480489;40;20025;-58
2021/05/25 00:08:37;;;;;;;0.85;0.80;;;13.70;57.30;;;;;;1481133;40;20037;-59
2021/05/25 00:09:58;;;;;;;0.70;0.70;;;13.70;57.40;;;;;;1479472;40;20048;-60
2021/05/25 00:11:19;;;;;;;0.95;0.80;;;13.60;57.40;;;;;;1481531;40;20040;-59
2021/05/25 00:12:41;;;;;;;1.80;0.70;;;13.60;57.50;;;;;;1479384;40;20449;-60
2021/05/25 00:14:04;;;;;;;1.23;1.00;;;13.60;57.50;;;;;;1479282;40;20064;-60
2021/05/25 00:15:26;;;;;;;0.85;0.70;;;13.60;57.50;;;;;;1481171;40;20032;-60
2021/05/25 00:16:48;;;;;;;1.60;0.80;;;13.60;57.50;;;;;;1479785;40;20033;-60
2021/05/25 00:18:09;;;;;;;0.70;0.70;;;13.60;57.50;;;;;;1482047;40;20109;-60
2021/05/25 00:19:30;;;;;;;1.05;0.95;;;13.60;57.50;;;;;;1482839;40;20072;-61
2021/05/25 00:20:51;;;;;;;1.90;0.75;;;13.60;57.50;;;;;;1478813;40;20273;-60
2021/05/25 00:22:13;;;;;;;0.70;0.70;;;13.60;57.60;;;;;;1481137;40;20101;-60
2021/05/25 00:23:34;;;;;;;1.67;0.65;;;13.60;57.60;;;;;;1480407;40;20047;-60
2021/05/25 00:24:55;;;;;;;0.88;0.88;;;13.60;57.60;;;;;;1479404;40;20041;-60
2021/05/25 00:26:16;;;;;;;0.88;0.70;;;13.60;57.60;;;;;;1479571;40;20037;-59
2021/05/25 00:27:38;;;;;;;0.95;0.70;;;13.60;57.60;;;;;;1480939;40;20281;-60
2021/05/25 00:28:59;;;;;;;0.80;0.55;;;13.60;57.70;;;;;;1480320;40;20259;-60
2021/05/25 00:30:21;;;;;;;0.70;0.70;;;13.60;57.70;;;;;;1479579;40;20029;-60
2021/05/25 00:31:42;;;;;;;2.53;0.90;;;13.60;57.70;;;;;;1480328;40;20036;-59
2021/05/25 00:33:03;;;;;;;1.35;0.90;;;13.60;57.60;;;;;;1480610;40;20044;-59
2021/05/25 00:34:24;;;;;;;0.82;0.70;;;13.60;57.60;;;;;;1480832;40;20025;-60
2021/05/25 00:35:45;;;;;;;0.90;0.50;;;13.50;57.60;;;;;;1478959;40;20098;-60
2021/05/25 00:37:06;;;;;;;2.38;0.82;;;13.50;57.60;;;;;;1480097;40;20041;-60
2021/05/25 00:38:27;;;;;;;3.60;1.00;;;13.50;57.60;;;;;;1479305;40;20072;-60
2021/05/25 00:39:48;;;;;;;1.27;0.90;;;13.50;57.60;;;;;;1482767;40;20029;-59
2021/05/25 00:41:09;;;;;;;0.73;0.60;;;13.50;57.60;;;;;;1481060;40;20028;-60
2021/05/25 00:42:29;;;;;;;0.65;0.65;;;13.50;57.60;;;;;;1478374;40;20077;-60
2021/05/25 00:43:50;;;;;;;0.70;0.70;;;13.50;57.60;;;;;;1479065;40;20273;-60
2021/05/25 00:45:13;;;;;;;1.20;0.80;;;13.50;57.50;;;;;;1479619;40;20373;-60
2021/05/25 00:46:34;;;;;;;0.60;0.60;;;13.50;57.50;;;;;;1479236;40;20032;-59
2021/05/25 00:47:55;;;;;;;1.05;0.70;;;13.50;57.40;;;;;;1478244;40;20350;-60
2021/05/25 00:49:16;;;;;;;1.02;0.75;;;13.50;57.40;;;;;;1481805;40;20388;-59
2021/05/25 00:50:37;;;;;;;1.98;0.70;;;13.40;57.90;;;;;;1478785;40;20037;-60
2021/05/25 00:51:58;;;;;;;0.73;0.73;;;13.40;57.40;;;;;;1480158;40;20065;-60
2021/05/25 00:53:19;;;;;;;0.82;0.80;;;13.40;57.30;;;;;;1480135;40;20041;-60
2021/05/25 00:54:40;;;;;;;2.08;0.70;;;13.40;57.30;;;;;;1480923;40;20029;-60
2021/05/25 00:56:01;;;;;;;1.02;0.50;;;13.40;57.40;;;;;;1480211;40;20524;-60
2021/05/25 00:57:22;;;;;;;0.80;0.75;;;13.40;57.30;;;;;;1479062;40;20032;-59
2021/05/25 00:58:43;;;;;;;1.38;0.90;;;13.40;57.40;;;;;;1480403;40;20029;-60
2021/05/25 01:00:05;;;;;;;1.38;0.77;;;13.40;57.30;;;;;;1479720;40;20358;-60
2021/05/25 01:01:27;;;;;;;0.70;0.70;;;13.40;57.20;;;;;;1478567;40;20025;-60
2021/05/25 01:02:49;;;;;;;0.60;0.60;;;13.40;57.20;;;;;;1480345;40;20036;-59
2021/05/25 01:04:09;;;;;;;1.13;0.70;;;13.30;57.10;;;;;;1480174;40;20044;-59
2021/05/25 01:05:31;;;;;;;0.98;0.80;;;13.30;57.10;;;;;;1480065;40;20273;-60
2021/05/25 01:06:52;;;;;;;2.00;0.70;;;13.30;57.10;;;;;;1479118;40;20290;-60
2021/05/25 01:08:13;;;;;;;1.67;0.70;;;13.30;57.20;;;;;;1480071;40;20025;-60
2021/05/25 01:09:34;;;;;;;1.85;0.65;;;13.30;57.10;;;;;;1481285;40;20029;-60
2021/05/25 01:11:01;;;;;;;0.77;0.70;;;13.30;57.10;;;;;;1480107;40;20032;-60
2021/05/25 01:12:24;;;;;;;1.25;0.70;;;13.30;57.20;;;;;;1481339;40;20032;-59
2021/05/25 01:13:54;;;;;;;0.60;0.60;;;13.20;57.10;;;;;;1478729;40;20320;-60
2021/05/25 01:15:16;;;;;;;0.73;0.55;;;13.20;57.10;;;;;;1481221;40;20041;-60
2021/05/25 01:16:37;;;;;;;0.60;0.60;;;13.20;57.10;;;;;;1479055;40;20078;-60
2021/05/25 01:17:59;;;;;;;0.50;0.50;;;13.20;57.10;;;;;;1481068;40;20035;-60
2021/05/25 01:19:20;;;;;;;1.33;0.68;;;13.20;57.10;;;;;;1481557;40;20025;-60
2021/05/25 01:20:47;;;;;;;1.15;0.60;;;13.20;57.10;;;;;;1480126;40;20030;-60
2021/05/25 01:22:08;;;;;;;0.50;0.50;;;13.20;57.20;;;;;;1481463;40;20055;-60
2021/05/25 01:23:31;;;;;;;0.90;0.60;;;13.20;57.10;;;;;;1479498;40;20485;-60
2021/05/25 01:24:52;;;;;;;0.60;0.60;;;13.20;57.20;;;;;;1483284;40;20032;-60
2021/05/25 01:26:15;;;;;;;0.65;0.60;;;13.10;57.20;;;;;;1480768;40;21375;-60
2021/05/25 01:27:36;;;;;;;2.38;0.80;;;13.10;57.10;;;;;;1479627;40;20037;-60
2021/05/25 01:28:57;;;;;;;1.38;0.80;;;13.10;57.60;;;;;;1480211;40;20033;-60
2021/05/25 01:30:19;;;;;;;1.02;0.52;;;13.10;57.10;;;;;;1480770;40;20021;-59
2021/05/25 01:31:40;;;;;;;1.02;0.60;;;13.10;57.20;;;;;;1478895;40;20113;-60
2021/05/25 01:33:03;;;;;;;1.00;0.65;;;13.10;57.20;;;;;;1481106;40;20028;-60
2021/05/25 01:34:24;;;;;;;1.08;0.70;;;13.00;57.20;;;;;;1481880;40;20028;-60
2021/05/25 01:35:46;;;;;;;0.95;0.60;;;13.10;57.20;;;;;;1478962;40;20035;-60
2021/05/25 01:37:07;;;;;;;0.73;0.60;;;13.00;57.20;;;;;;1479863;40;20119;-59
2021/05/25 01:38:28;;;;;;;0.60;0.50;;;13.00;57.30;;;;;;1480818;40;20127;-60
2021/05/25 01:39:53;;;;;;;1.42;0.60;;;13.00;57.20;;;;;;1482679;40;20450;-60
2021/05/25 01:41:14;;;;;;;0.70;0.70;;;13.00;57.30;;;;;;1481420;40;20025;-60
2021/05/25 01:42:37;;;;;;;0.80;0.60;;;13.00;57.20;;;;;;1479318;40;20353;-60
2021/05/25 01:43:58;;;;;;;0.75;0.65;;;13.00;57.20;;;;;;1480694;40;20056;-60
2021/05/25 01:45:27;;;;;;;1.42;0.70;;;13.00;57.20;;;;;;1482256;40;20369;-59
2021/05/25 01:46:50;;;;;;;0.80;0.80;;;13.00;57.30;;;;;;1480666;40;20274;-60
2021/05/25 01:48:11;;;;;;;0.60;0.60;;;13.00;57.30;;;;;;1481224;40;20056;-60
2021/05/25 01:49:32;;;;;;;1.80;0.63;;;13.00;57.20;;;;;;1481275;40;20070;-60
2021/05/25 01:50:53;;;;;;;0.65;0.65;;;13.00;57.20;;;;;;1479424;40;20029;-59
2021/05/25 01:52:17;;;;;;;2.38;0.80;;;13.00;57.20;;;;;;1478493;40;20041;-60
2021/05/25 01:53:38;;;;;;;0.75;0.70;;;13.00;57.20;;;;;;1480854;40;20036;-59
2021/05/25 01:54:59;;;;;;;0.68;0.68;;;13.00;57.20;;;;;;1477779;40;20097;-59
2021/05/25 01:56:20;;;;;;;0.60;0.60;;;13.00;57.20;;;;;;1481909;40;20033;-60
2021/05/25 01:57:41;;;;;;;0.65;0.65;;;13.00;57.20;;;;;;1479394;40;20033;-60
2021/05/25 01:59:02;;;;;;;2.17;0.65;;;13.00;57.20;;;;;;1478961;40;20069;-59
2021/05/25 02:00:23;;;;;;;1.17;0.70;;;13.00;57.30;;;;;;1481198;40;20039;-59
2021/05/25 02:01:45;;;;;;;0.70;0.50;;;13.00;57.30;;;;;;1480404;40;20057;-60
2021/05/25 02:03:07;;;;;;;1.40;0.60;;;13.00;57.20;;;;;;1480759;40;20033;-59
2021/05/25 02:04:28;;;;;;;0.65;0.60;;;13.00;57.20;;;;;;1480594;40;20025;-60
2021/05/25 02:05:49;;;;;;;0.60;0.60;;;13.00;57.20;;;;;;1479016;40;20029;-60
2021/05/25 02:07:16;;;;;;;0.90;0.65;;;13.00;57.20;;;;;;1477789;40;20025;-60
2021/05/25 02:08:37;;;;;;;1.67;0.60;;;13.00;57.20;;;;;;1479246;40;20025;-60
2021/05/25 02:09:58;;;;;;;1.13;0.60;;;13.00;57.20;;;;;;1479925;40;20032;-60
2021/05/25 02:11:19;;;;;;;0.70;0.70;;;13.00;57.20;;;;;;1480670;40;20053;-60
2021/05/25 02:12:40;;;;;;;0.93;0.60;;;12.90;57.20;;;;;;1479040;40;20037;-60
2021/05/25 02:14:01;;;;;;;0.65;0.50;;;13.00;57.20;;;;;;1481038;40;20036;-60
2021/05/25 02:15:22;;;;;;;0.80;0.68;;;12.90;57.20;;;;;;1480460;40;20040;-60
2021/05/25 02:16:43;;;;;;;0.50;0.50;;;12.90;57.20;;;;;;1480099;40;20033;-60
2021/05/25 02:18:07;;;;;;;0.60;0.60;;;13.00;57.30;;;;;;1481580;40;20025;-59
2021/05/25 02:19:28;;;;;;;0.60;0.60;;;12.90;57.30;;;;;;1478680;40;20043;-60
2021/05/25 02:20:51;;;;;;;1.38;0.80;;;13.00;57.30;;;;;;1479399;40;20021;-59
2021/05/25 02:22:12;;;;;;;0.73;0.73;;;12.90;57.30;;;;;;1480412;40;20314;-60
2021/05/25 02:23:34;;;;;;;1.95;0.80;;;12.90;57.30;;;;;;1481229;40;20035;-59
2021/05/25 02:24:54;;;;;;;0.93;0.57;;;13.00;57.30;;;;;;1482448;40;20040;-60
2021/05/25 02:26:16;;;;;;;0.85;0.63;;;12.90;57.30;;;;;;1479004;40;20114;-60
2021/05/25 02:27:37;;;;;;;0.73;0.63;;;13.00;57.30;;;;;;1480378;40;20064;-59
2021/05/25 02:28:58;;;;;;;0.70;0.70;;;13.00;57.30;;;;;;1480653;40;20129;-60
2021/05/25 02:30:19;;;;;;;0.60;0.60;;;12.90;57.30;;;;;;1479720;40;20036;-60
2021/05/25 02:31:41;;;;;;;0.50;0.50;;;12.90;57.30;;;;;;1479962;40;20313;-60
2021/05/25 02:33:06;;;;;;;0.90;0.60;;;13.00;57.40;;;;;;1478237;40;20025;-60
2021/05/25 02:34:27;;;;;;;0.57;0.57;;;12.90;57.40;;;;;;1479444;40;20350;-59
2021/05/25 02:35:50;;;;;;;0.60;0.60;;;13.00;57.40;;;;;;1479031;40;20125;-60
2021/05/25 02:37:11;;;;;;;0.70;0.60;;;12.90;57.40;;;;;;1479878;40;20025;-59
2021/05/25 02:38:32;;;;;;;0.52;0.52;;;12.90;57.50;;;;;;1478359;40;20036;-59
2021/05/25 02:39:53;;;;;;;0.73;0.60;;;12.90;57.50;;;;;;1478500;40;20041;-60
2021/05/25 02:41:14;;;;;;;0.70;0.68;;;12.90;57.50;;;;;;1479681;40;20382;-59
2021/05/25 02:42:35;;;;;;;0.50;0.50;;;12.90;57.60;;;;;;1478504;40;20025;-60
2021/05/25 02:43:57;;;;;;;0.50;0.50;;;12.90;57.60;;;;;;1480517;40;20039;-60
2021/05/25 02:45:19;;;;;;;0.70;0.57;;;13.00;57.70;;;;;;1480413;40;20037;-60
2021/05/25 02:46:40;;;;;;;1.45;0.60;;;13.00;57.70;;;;;;1480085;40;20041;-60
2021/05/25 02:48:02;;;;;;;0.50;0.50;;;13.00;57.60;;;;;;1479620;40;20139;-60
2021/05/25 02:49:23;;;;;;;0.50;0.50;;;13.00;57.60;;;;;;1480239;40;20036;-60
2021/05/25 02:50:45;;;;;;;0.60;0.60;;;13.00;57.60;;;;;;1478087;40;20053;-60
2021/05/25 02:52:06;;;;;;;0.95;0.70;;;13.00;57.60;;;;;;1481439;40;20033;-60
2021/05/25 02:53:27;;;;;;;0.82;0.70;;;13.00;57.70;;;;;;1481469;40;20036;-59
2021/05/25 02:54:48;;;;;;;0.57;0.47;;;13.00;57.70;;;;;;1481885;40;20043;-60
2021/05/25 02:56:08;;;;;;;0.57;0.57;;;13.00;57.70;;;;;;1481229;40;20364;-60
2021/05/25 02:57:29;;;;;;;0.57;0.57;;;13.00;57.80;;;;;;1479834;40;20114;-60
2021/05/25 02:58:51;;;;;;;0.98;0.70;;;13.00;57.80;;;;;;1477521;40;20361;-60
2021/05/25 03:00:17;;;;;;;0.70;0.70;;;13.00;57.80;;;;;;1480726;40;20078;-60
2021/05/25 03:01:38;;;;;;;2.35;0.90;;;13.00;57.80;;;;;;1478670;40;20070;-59
2021/05/25 03:02:59;;;;;;;0.77;0.77;;;13.00;57.80;;;;;;1477984;40;20030;-60
2021/05/25 03:04:20;;;;;;;0.60;0.52;;;13.00;57.80;;;;;;1481091;40;20119;-60
2021/05/25 03:05:43;;;;;;;0.50;0.50;;;13.00;57.80;;;;;;1478233;40;20033;-60
2021/05/25 03:07:04;;;;;;;1.30;0.50;;;13.00;57.90;;;;;;1479026;40;20354;-60
2021/05/25 03:08:26;;;;;;;0.80;0.63;;;13.00;57.90;;;;;;1480673;40;20029;-60
2021/05/25 03:09:47;;;;;;;0.57;0.57;;;13.00;57.90;;;;;;1479380;40;20034;-60
2021/05/25 03:11:09;;;;;;;0.82;0.63;;;13.00;57.80;;;;;;1481282;40;20033;-60
2021/05/25 03:12:29;;;;;;;1.83;0.50;;;13.00;57.90;;;;;;1479729;40;20363;-60
2021/05/25 03:13:52;;;;;;;1.25;0.60;;;13.00;57.90;;;;;;1480963;40;20025;-59
2021/05/25 03:15:19;;;;;;;2.00;0.68;;;13.00;57.90;;;;;;1478863;40;20041;-60
2021/05/25 03:16:40;;;;;;;0.60;0.60;;;13.00;57.90;;;;;;1481147;40;20025;-60
2021/05/25 03:18:02;;;;;;;0.43;0.43;;;13.00;58.00;;;;;;1480810;40;20033;-60
2021/05/25 03:19:23;;;;;;;1.00;0.70;;;13.00;57.90;;;;;;1478823;40;20039;-59
2021/05/25 03:20:46;;;;;;;1.77;0.60;;;13.00;58.00;;;;;;1478708;40;20040;-60
2021/05/25 03:22:07;;;;;;;0.60;0.60;;;13.00;58.10;;;;;;1478257;40;20034;-60
2021/05/25 03:23:28;;;;;;;1.30;0.60;;;13.00;58.00;;;;;;1478555;40;20037;-60
2021/05/25 03:24:49;;;;;;;0.70;0.60;;;13.00;58.00;;;;;;1480040;40;20061;-60
2021/05/25 03:26:11;;;;;;;0.50;0.50;;;13.00;58.10;;;;;;1481540;40;20036;-59
2021/05/25 03:27:32;;;;;;;0.63;0.60;;;13.00;58.00;;;;;;1480093;40;20041;-59
2021/05/25 03:28:53;;;;;;;0.65;0.63;;;13.00;58.00;;;;;;1478494;40;20042;-59
2021/05/25 03:30:18;;;;;;;0.60;0.60;;;13.00;58.20;;;;;;1482088;40;20025;-59
2021/05/25 03:31:39;;;;;;;0.60;0.60;;;13.00;58.10;;;;;;1478478;40;20056;-59
2021/05/25 03:33:00;;;;;;;0.63;0.63;;;13.00;58.10;;;;;;1479592;40;20295;-60
2021/05/25 03:34:21;;;;;;;1.00;0.70;;;13.00;58.10;;;;;;1479330;40;20017;-60
2021/05/25 03:35:42;;;;;;;1.50;0.60;;;13.00;58.10;;;;;;1479869;40;20037;-60
2021/05/25 03:37:03;;;;;;;1.02;0.50;;;13.00;58.20;;;;;;1480835;40;20048;-60
2021/05/25 03:38:24;;;;;;;0.90;0.70;;;13.00;58.20;;;;;;1479129;40;20017;-60
2021/05/25 03:39:45;;;;;;;0.63;0.63;;;13.00;58.30;;;;;;1479984;40;20029;-59
2021/05/25 03:41:06;;;;;;;1.33;0.50;;;13.00;58.30;;;;;;1481466;40;20031;-60
2021/05/25 03:42:26;;;;;;;0.60;0.60;;;13.00;58.30;;;;;;1481397;40;20117;-60
2021/05/25 03:43:47;;;;;;;0.65;0.60;;;13.00;58.30;;;;;;1480842;40;20074;-59
2021/05/25 03:45:08;;;;;;;0.68;0.65;;;13.00;58.40;;;;;;1481006;40;20044;-60
2021/05/25 03:46:29;;;;;;;0.60;0.60;;;13.00;58.30;;;;;;1480355;40;20057;-59
2021/05/25 03:47:51;;;;;;;0.75;0.60;;;13.00;58.40;;;;;;1479159;40;20340;-60
2021/05/25 03:49:12;;;;;;;1.52;0.65;;;13.00;58.40;;;;;;1478675;40;20041;-60
2021/05/25 03:50:33;;;;;;;0.60;0.60;;;13.00;58.50;;;;;;1480383;40;20029;-59
2021/05/25 03:51:54;;;;;;;0.95;0.77;;;13.00;58.50;;;;;;1482858;40;20090;-59
2021/05/25 03:53:15;;;;;;;2.38;0.80;;;13.00;58.50;;;;;;1481448;40;20176;-60
2021/05/25 03:54:41;;;;;;;0.60;0.60;;;13.00;58.50;;;;;;1481337;40;20049;-60
2021/05/25 03:56:28;;;;;;;2.05;0.68;;;13.00;58.60;;;;;;1480364;40;20035;-59
2021/05/25 03:59:07;;;;;;;0.60;0.60;;;13.00;58.50;;;;;;1481179;40;20366;-59
2021/05/25 04:00:28;;;;;;;0.60;0.60;;;13.00;58.50;;;;;;1479371;40;20073;-60
2021/05/25 04:01:49;;;;;;;1.17;0.60;;;13.00;58.60;;;;;;1479062;40;20029;-59
2021/05/25 04:03:10;;;;;;;0.52;0.43;;;13.00;58.60;;;;;;1480174;40;20024;-60
2021/05/25 04:04:32;;;;;;;1.35;0.60;;;13.00;58.70;;;;;;1479441;40;20032;-60
2021/05/25 04:05:53;;;;;;;2.95;0.80;;;13.00;58.70;;;;;;1481010;40;20029;-59
2021/05/25 04:07:14;;;;;;;2.40;0.70;;;13.00;58.80;;;;;;1479609;40;20057;-59
2021/05/25 04:08:35;;;;;;;0.52;0.52;;;13.00;58.80;;;;;;1481132;40;20029;-60
2021/05/25 04:09:56;;;;;;;2.00;0.60;;;13.00;58.90;;;;;;1479199;40;20040;-60
2021/05/25 04:11:17;;;;;;;0.68;0.68;;;13.00;58.90;;;;;;1481397;40;20557;-60
2021/05/25 04:12:38;;;;;;;0.60;0.60;;;13.10;59.00;;;;;;1478327;40;20436;-60
2021/05/25 04:13:59;;;;;;;0.73;0.70;;;13.10;58.90;;;;;;1480533;40;20036;-60
2021/05/25 04:15:21;;;;;;;0.77;0.60;;;13.00;58.90;;;;;;1483095;40;20040;-60
2021/05/25 04:16:41;;;;;;;1.75;0.80;;;13.00;59.00;;;;;;1481129;40;20366;-60
2021/05/25 04:18:02;;;;;;;0.70;0.63;;;13.00;58.90;;;;;;1480421;40;20069;-60
2021/05/25 04:19:23;;;;;;;2.28;0.80;;;13.10;59.00;;;;;;1478850;40;20054;-60
2021/05/25 04:20:45;;;;;;;0.95;0.68;;;13.00;59.10;;;;;;1480550;40;20036;-60
2021/05/25 04:22:06;;;;;;;0.60;0.60;;;13.00;59.20;;;;;;1480819;40;20061;-60
2021/05/25 04:23:26;;;;;;;0.70;0.70;;;13.00;59.20;;;;;;1478214;40;20036;-60
2021/05/25 04:24:47;;;;;;;0.60;0.60;;;13.10;59.80;;;;;;1478993;40;20032;-60
2021/05/25 04:26:08;;;;;;;1.05;0.90;;;13.10;59.40;;;;;;1479854;40;20056;-60
2021/05/25 04:27:29;;;;;;;0.80;0.60;;;13.10;59.50;;;;;;1479134;40;20033;-60
2021/05/25 04:28:50;;;;;;;1.00;0.70;;;13.10;59.50;;;;;;1479833;40;20058;-60
2021/05/25 04:30:12;;;;;;;0.50;0.50;;;13.10;59.60;;;;;;1480833;40;20451;-60
2021/05/25 04:31:33;;;;;;;0.63;0.63;;;13.10;59.60;;;;;;1481081;40;20044;-60
2021/05/25 04:32:54;;;;;;;0.60;0.60;;;13.10;59.70;;;;;;1479685;40;20072;-60
2021/05/25 04:34:15;;;;;;;1.30;0.80;;;13.10;59.80;;;;;;1480280;40;20028;-60
2021/05/25 04:35:36;;;;;;;1.10;0.68;;;13.10;59.80;;;;;;1479598;40;20122;-60
2021/05/25 04:36:56;;;;;;;0.80;0.80;;;13.10;59.90;;;;;;1479826;40;20029;-59
2021/05/25 04:38:17;;;;;;;0.70;0.70;;;13.10;59.90;;;;;;1479783;40;20024;-59
2021/05/25 04:39:38;;;;;;;3.42;0.75;;;13.10;60.10;;;;;;1478883;40;20053;-60
2021/05/25 04:40:59;;;;;;;1.38;0.73;;;13.10;60.10;;;;;;1482148;40;20033;-60
2021/05/25 04:42:20;;;;;;;0.82;0.80;;;13.10;60.10;;;;;;1480707;40;20119;-60
2021/05/25 04:43:41;;;;;;;1.05;0.80;;;13.10;60.10;;;;;;1480997;40;20030;-59
2021/05/25 04:45:03;;;;;;;0.80;0.77;;;13.10;60.60;;;;;;1481826;40;20036;-60
2021/05/25 04:46:24;;;;;;;0.60;0.60;;;13.10;60.40;;;;;;1479432;40;20372;-60
2021/05/25 04:47:45;;;;;;;1.23;0.60;;;13.10;60.40;;;;;;1479843;40;20056;-60
2021/05/25 04:49:06;;;;;;;0.60;0.60;;;13.10;60.40;;;;;;1479826;40;20040;-59
2021/05/25 04:50:28;;;;;;;1.67;0.80;;;13.00;60.40;;;;;;1480495;40;20035;-60
2021/05/25 04:51:49;;;;;;;1.13;0.70;;;13.10;60.50;;;;;;1480073;40;20347;-60
2021/05/25 04:53:10;;;;;;;0.90;0.80;;;13.10;60.50;;;;;;1481232;40;20032;-59
2021/05/25 04:54:31;;;;;;;0.90;0.70;;;13.00;60.70;;;;;;1479594;40;20163;-60
2021/05/25 04:55:52;;;;;;;0.85;0.60;;;13.00;60.70;;;;;;1481837;40;20529;-60
2021/05/25 04:57:13;;;;;;;1.55;0.90;;;13.00;60.80;;;;;;1479990;40;20033;-60
2021/05/25 04:58:34;;;;;;;0.90;0.88;;;13.00;61.00;;;;;;1479397;40;20037;-59
2021/05/25 04:59:55;;;;;;;1.17;1.00;;;13.00;61.00;;;;;;1477459;40;20040;-60
2021/05/25 05:01:16;;;;;;;0.85;0.70;;;13.00;61.10;;;;;;1481244;40;20032;-60
2021/05/25 05:02:37;;;;;;;2.05;0.90;;;13.00;61.10;;;;;;1480105;40;20140;-60
2021/05/25 05:03:58;;;;;;;1.17;0.90;;;13.00;61.10;;;;;;1478238;40;20141;-60
2021/05/25 05:05:20;;;;;;;2.97;0.90;;;13.00;61.10;;;;;;1480703;40;20027;-59
2021/05/25 05:06:41;;;;;;;0.70;0.70;;;13.00;61.20;;;;;;1480216;40;20033;-60
2021/05/25 05:08:02;;;;;;;0.90;0.90;;;13.00;61.30;;;;;;1479540;40;20029;-60
2021/05/25 05:09:23;;;;;;;1.00;1.00;;;13.00;61.50;;;;;;1480464;40;20053;-60
2021/05/25 05:10:43;;;;;;;0.98;0.93;;;13.00;61.60;;;;;;1480908;40;20351;-60
2021/05/25 05:12:05;;;;;;;2.05;0.93;;;12.90;61.70;;;;;;1479148;40;20036;-60
2021/05/25 05:13:26;;;;;;;2.25;1.00;;;13.00;61.60;;;;;;1481015;40;20025;-60
2021/05/25 05:14:47;;;;;;;0.70;0.70;;;13.00;61.70;;;;;;1481268;40;20025;-59
2021/05/25 05:16:07;;;;;;;1.98;0.90;;;13.00;61.70;;;;;;1479046;40;20040;-60
2021/05/25 05:17:29;;;;;;;1.65;1.02;;;12.90;61.90;;;;;;1479016;40;20067;-59
2021/05/25 05:18:49;;;;;;;0.73;0.73;;;13.00;62.00;;;;;;1479599;40;20025;-60
2021/05/25 05:20:12;;;;;;;1.42;0.80;;;12.90;61.90;;;;;;1480764;40;20044;-60
2021/05/25 05:21:33;;;;;;;0.93;0.90;;;13.00;62.20;;;;;;1482335;40;20054;-60
2021/05/25 05:22:54;;;;;;;1.45;0.90;;;12.90;62.10;;;;;;1480297;40;20033;-60
2021/05/25 05:24:15;;;;;;;2.10;0.80;;;13.00;62.20;;;;;;1479964;40;20039;-60
2021/05/25 05:25:37;;;;;;;1.13;0.80;;;13.00;62.20;;;;;;1479864;40;20030;-60
2021/05/25 05:26:58;;;;;;;0.80;0.80;;;13.00;62.30;;;;;;1479692;40;20056;-60
2021/05/25 05:28:20;;;;;;;2.25;1.00;;;13.00;62.40;;;;;;1481306;40;20029;-60
2021/05/25 05:29:41;;;;;;;1.33;0.88;;;13.00;62.40;;;;;;1480677;40;20033;-59
2021/05/25 05:31:02;;;;;;;0.82;0.82;;;13.00;62.50;;;;;;1481229;40;20036;-60
2021/05/25 05:32:23;;;;;;;1.38;0.75;;;13.00;62.40;;;;;;1479629;40;20021;-60
2021/05/25 05:33:44;;;;;;;1.38;0.85;;;13.00;62.40;;;;;;1478240;40;20040;-60
2021/05/25 05:35:06;;;;;;;1.40;1.00;;;13.00;62.50;;;;;;1482601;40;20040;-60
2021/05/25 05:36:27;;;;;;;0.80;0.80;;;13.00;62.60;;;;;;1478607;40;20371;-61
2021/05/25 05:37:49;;;;;;;1.00;0.80;;;13.00;62.70;;;;;;1482112;40;20045;-61
2021/05/25 05:39:10;;;;;;;1.65;0.95;;;13.00;62.50;;;;;;1481230;40;20040;-61
2021/05/25 05:40:31;;;;;;;2.03;0.90;;;13.00;63.40;;;;;;1480364;40;20040;-61
2021/05/25 05:41:52;;;;;;;1.77;0.98;;;12.90;63.00;;;;;;1480055;40;20095;-61
2021/05/25 05:43:13;;;;;;;2.17;1.00;;;13.00;64.30;;;;;;1479707;40;20036;-61
2021/05/25 05:44:34;;;;;;;1.75;1.00;;;12.90;63.40;;;;;;1479555;40;20379;-61
2021/05/25 05:45:56;;;;;;;1.85;1.10;;;12.90;63.40;;;;;;1480738;40;20443;-61
2021/05/25 05:47:17;;;;;;;0.90;0.90;;;12.90;63.50;;;;;;1479482;40;20409;-61
2021/05/25 05:48:38;;;;;;;1.10;0.90;;;12.90;63.30;;;;;;1480018;40;20324;-61
2021/05/25 05:49:59;;;;;;;1.48;0.90;;;12.80;63.20;;;;;;1482164;40;20024;-61
2021/05/25 05:51:20;;;;;;;1.30;1.20;;;12.80;63.40;;;;;;1480042;40;20068;-61
2021/05/25 05:52:41;;;;;;;0.80;0.80;;;12.80;63.60;;;;;;1481099;40;20025;-61
2021/05/25 05:54:03;;;;;;;1.83;0.98;;;12.80;63.70;;;;;;1479975;40;20036;-60
2021/05/25 05:55:24;;;;;;;1.35;1.15;;;12.80;64.00;;;;;;1480536;40;20119;-60
2021/05/25 05:56:48;;;;;;;1.20;0.90;;;12.80;64.10;;;;;;1481170;40;20040;-61
2021/05/25 05:58:09;;;;;;;1.10;1.00;;;12.70;64.00;;;;;;1480880;40;20037;-60
2021/05/25 05:59:30;;;;;;;0.90;0.90;;;12.70;64.00;;;;;;1480349;40;20035;-58
2021/05/25 06:00:51;;;;;;;1.48;1.00;;;12.70;64.40;;;;;;1479216;40;20029;-61
2021/05/25 06:02:12;;;;;;;2.17;1.10;;;12.70;64.70;;;;;;1478813;40;20269;-60
2021/05/25 06:03:33;;;;;;;0.82;0.82;;;12.70;64.70;;;;;;1481101;40;20098;-61
2021/05/25 06:04:54;;;;;;;1.45;1.20;;;12.70;64.30;;;;;;1480165;40;20037;-61
2021/05/25 06:06:15;;;;;;;2.85;1.10;;;12.60;64.30;;;;;;1481645;40;20036;-60
2021/05/25 06:07:36;;;;;;;1.02;0.93;;;12.70;64.80;;;;;;1481290;40;20041;-60
2021/05/25 06:08:57;;;;;;;2.67;1.20;;;12.60;64.70;;;;;;1478909;40;20032;-60
2021/05/25 06:10:18;;;;;;;1.10;1.10;;;12.60;65.10;;;;;;1481846;40;20080;-61
2021/05/25 06:11:38;;;;;;;0.80;0.77;;;12.60;64.70;;;;;;1479567;40;20053;-61
2021/05/25 06:12:59;;;;;;;0.88;0.80;;;12.60;64.80;;;;;;1479218;40;20035;-61
2021/05/25 06:14:21;;;;;;;1.00;0.85;;;12.60;65.10;;;;;;1482412;40;20032;-59
2021/05/25 06:15:42;;;;;;;1.60;0.90;;;12.50;65.10;;;;;;1480298;40;20540;-60
2021/05/25 06:17:03;;;;;;;1.08;0.70;;;12.50;65.40;;;;;;1479802;40;20033;-61
2021/05/25 06:18:24;;;;;;;1.73;1.02;;;12.50;65.40;;;;;;1480261;40;20607;-60
2021/05/25 06:19:45;;;;;;;3.42;1.13;;;12.50;65.50;;;;;;1481541;40;20131;-60
2021/05/25 06:21:06;;;;;;;1.00;0.90;;;12.50;65.90;;;;;;1480250;40;20029;-59
2021/05/25 06:22:27;;;;;;;1.95;1.00;;;12.50;65.60;;;;;;1481004;40;20040;-59
2021/05/25 06:23:48;;;;;;;0.80;0.80;;;12.40;65.80;;;;;;1477747;40;20052;-60
2021/05/25 06:25:09;;;;;;;1.02;0.98;;;12.40;65.70;;;;;;1478436;40;20528;-59
2021/05/25 06:26:30;;;;;;;2.15;0.90;;;12.40;65.70;;;;;;1481619;40;20036;-61
2021/05/25 06:27:51;;;;;;;0.90;0.90;;;12.40;65.60;;;;;;1479990;40;20099;-60
2021/05/25 06:29:12;;;;;;;1.20;1.10;;;12.40;66.20;;;;;;1481908;40;20048;-60
2021/05/25 06:30:33;;;;;;;0.98;0.93;;;12.40;66.20;;;;;;1479956;40;20055;-60
2021/05/25 06:31:59;;;;;;;2.22;0.95;;;12.40;65.70;;;;;;1478670;40;20099;-60
2021/05/25 06:33:20;;;;;;;1.33;0.95;;;12.40;65.60;;;;;;1483674;40;20362;-60
2021/05/25 06:34:41;;;;;;;0.80;0.80;;;12.40;65.50;;;;;;1481749;40;20130;-60
2021/05/25 06:36:02;;;;;;;1.17;0.90;;;12.40;65.80;;;;;;1481905;40;20282;-60
2021/05/25 06:37:23;;;;;;;1.50;0.80;;;12.40;66.00;;;;;;1479248;40;20021;-60
2021/05/25 06:38:44;;;;;;;1.23;1.13;;;12.50;66.00;;;;;;1478630;40;20029;-60
2021/05/25 06:40:06;;;;;;;2.90;0.90;;;12.50;66.30;;;;;;1481352;40;20045;-60
2021/05/25 06:41:27;;;;;;;1.30;1.10;;;12.50;66.40;;;;;;1478880;40;20025;-61
2021/05/25 06:42:48;;;;;;;1.30;1.20;;;12.50;66.10;;;;;;1479409;40;20626;-60
2021/05/25 06:44:08;;;;;;;1.20;1.10;;;12.50;66.10;;;;;;1481275;40;20047;-60
2021/05/25 06:45:30;;;;;;;1.00;0.90;;;12.60;66.20;;;;;;1478985;40;20029;-60
2021/05/25 06:46:50;;;;;;;1.08;1.05;;;12.50;66.00;;;;;;1479226;40;20009;-61
2021/05/25 06:48:11;;;;;;;0.93;0.93;;;12.60;66.00;;;;;;1480761;40;20524;-60
2021/05/25 06:49:32;;;;;;;1.02;1.00;;;12.60;65.70;;;;;;1479328;40;20041;-60
2021/05/25 06:50:53;;;;;;;0.85;0.80;;;12.70;66.10;;;;;;1478269;40;20029;-60
2021/05/25 06:52:14;;;;;;;0.93;0.88;;;12.70;65.90;;;;;;1479430;40;20029;-60
2021/05/25 06:53:36;;;;;;;0.80;0.80;;;12.70;66.00;;;;;;1481130;40;20037;-60
2021/05/25 06:54:58;;;;;;;0.88;0.88;;;12.80;66.10;;;;;;1479671;40;20079;-60
2021/05/25 06:56:19;;;;;;;1.35;0.98;;;12.80;66.20;;;;;;1480515;40;20355;-60
2021/05/25 06:57:40;;;;;;;1.20;0.88;;;12.80;66.20;;;;;;1482468;40;20041;-60
2021/05/25 06:59:01;;;;;;;1.30;0.82;;;12.80;66.10;;;;;;1480717;40;20029;-59
2021/05/25 07:00:23;;;;;;;1.63;1.00;;;12.90;65.90;;;;;;1479859;40;20353;-61
2021/05/25 07:01:44;;;;;;;1.25;0.90;;;12.90;65.70;;;;;;1479892;40;20126;-60
2021/05/25 07:03:05;;;;;;;1.33;0.90;;;12.90;65.60;;;;;;1479648;40;20081;-60
2021/05/25 07:04:25;;;;;;;0.80;0.80;;;13.00;65.60;;;;;;1479443;40;20021;-60
2021/05/25 07:05:46;;;;;;;0.60;0.60;;;13.00;65.30;;;;;;1480231;40;20037;-60